createdAt,value
2022-08-02T00:03:44.222Z,100.00
2022-08-02T00:08:47.573Z,100.00
2022-08-02T00:13:51.383Z,100.00
2022-08-02T00:18:56.191Z,100.00
2022-08-02T00:24:29.188Z,100.00
2022-08-02T00:29:23.966Z,100.00
2022-08-02T00:34:31.996Z,100.00
2022-08-02T00:39:38.402Z,100.00
2022-08-02T00:44:41.911Z,100.00
2022-08-02T00:49:46.896Z,100.00
2022-08-02T00:54:50.201Z,100.00
2022-08-02T00:59:53.657Z,100.00
2022-08-02T01:04:58.407Z,100.00
2022-08-02T01:10:01.943Z,100.00
2022-08-02T01:15:08.906Z,100.00
2022-08-02T01:20:26.842Z,100.00
2022-08-02T01:25:51.593Z,100.00
2022-08-02T01:31:01.823Z,100.00
2022-08-02T01:36:10.543Z,100.00
2022-08-02T01:41:19.281Z,100.00
2022-08-02T01:46:25.839Z,100.00
2022-08-02T01:51:48.329Z,100.00
2022-08-02T01:56:53.093Z,100.00
2022-08-02T02:01:59.828Z,100.00
2022-08-02T02:07:04.237Z,100.00
2022-08-02T02:12:13.540Z,100.00
2022-08-02T02:17:52.876Z,100.00
2022-08-02T02:22:42.766Z,100.00
2022-08-02T02:27:53.167Z,100.00
2022-08-02T02:33:02.003Z,100.00
2022-08-02T02:38:07.704Z,100.00
2022-08-02T02:43:13.304Z,100.00
2022-08-02T02:48:19.052Z,100.00
2022-08-02T02:53:24.289Z,100.00
2022-08-02T02:58:28.986Z,100.00
2022-08-02T03:03:34.908Z,100.00
2022-08-02T03:08:38.311Z,100.00
2022-08-02T03:13:42.457Z,100.00
2022-08-02T03:18:47.106Z,100.00
2022-08-02T03:23:51.398Z,100.00
2022-08-02T03:28:54.726Z,100.00
2022-08-02T03:34:01.110Z,100.00
2022-08-02T03:39:06.299Z,100.00
2022-08-02T03:44:10.748Z,100.00
2022-08-02T03:49:18.616Z,100.00
2022-08-02T03:54:23.517Z,100.00
2022-08-02T03:59:42.339Z,100.00
2022-08-02T04:04:47.060Z,100.00
2022-08-02T04:09:50.386Z,100.00
2022-08-02T04:14:54.292Z,100.00
2022-08-02T04:20:04.931Z,100.00
2022-08-02T04:25:17.224Z,100.00
2022-08-02T04:30:22.486Z,100.00
2022-08-02T04:35:27.423Z,100.00
2022-08-02T04:40:30.783Z,100.00
2022-08-02T04:45:34.617Z,100.00
2022-08-02T04:50:39.265Z,100.00
2022-08-02T04:55:42.681Z,100.00
2022-08-02T05:00:46.107Z,100.00
2022-08-02T05:05:50.976Z,100.00
2022-08-02T05:10:54.357Z,100.00
2022-08-02T05:15:58.995Z,100.00
2022-08-02T05:21:03.672Z,100.00
2022-08-02T05:26:07.078Z,100.00
2022-08-02T05:31:13.248Z,100.00
2022-08-02T05:36:18.780Z,100.00
2022-08-02T05:41:25.041Z,100.00
2022-08-02T05:46:28.555Z,100.00
2022-08-02T05:51:38.068Z,100.00
2022-08-02T05:56:47.816Z,100.00
2022-08-02T06:01:57.018Z,100.00
2022-08-02T06:07:06.312Z,100.00
2022-08-02T06:12:13.826Z,100.00
2022-08-02T06:17:18.218Z,100.00
2022-08-02T06:22:37.793Z,100.00
2022-08-02T06:27:42.286Z,100.00
2022-08-02T06:32:46.592Z,100.00
2022-08-02T06:37:58.612Z,100.00
2022-08-02T06:43:12.067Z,100.00
2022-08-02T06:48:15.845Z,100.00
2022-08-02T06:53:20.618Z,100.00
2022-08-02T06:58:24.024Z,100.00
2022-08-02T07:03:27.546Z,100.00
2022-08-02T07:08:33.047Z,100.00
2022-08-02T07:13:39.869Z,100.00
2022-08-02T07:18:43.454Z,100.00
2022-08-02T07:23:48.091Z,100.00
2022-08-02T07:28:51.680Z,100.00
2022-08-02T07:33:55.140Z,100.00
2022-08-02T07:38:59.820Z,100.00
2022-08-02T07:44:03.221Z,100.00
2022-08-02T07:49:06.689Z,100.00
2022-08-02T07:54:11.518Z,94.74
2022-08-02T07:59:20.578Z,99.40
2022-08-02T08:04:23.931Z,100.00
2022-08-02T08:09:28.648Z,94.78
2022-08-02T08:14:32.113Z,88.80
2022-08-02T08:19:50.540Z,93.58
2022-08-02T08:24:57.282Z,96.89
2022-08-02T08:30:00.995Z,96.12
2022-08-02T08:35:06.994Z,95.39
2022-08-02T08:40:13.381Z,87.47
2022-08-02T08:45:23.160Z,85.52
2022-08-02T08:50:27.841Z,84.33
2022-08-02T08:55:34.472Z,92.82
2022-08-02T09:00:38.085Z,96.42
2022-08-02T09:05:43.441Z,97.91
2022-08-02T09:10:49.278Z,96.17
2022-08-02T09:15:58.859Z,100.00
2022-08-02T09:21:06.700Z,100.00
2022-08-02T09:26:13.055Z,97.39
2022-08-02T09:31:18.288Z,92.78
2022-08-02T09:36:22.615Z,89.51
2022-08-02T09:41:29.452Z,86.26
2022-08-02T09:46:38.012Z,85.66
2022-08-02T09:51:49.931Z,83.75
2022-08-02T09:56:56.408Z,76.28
2022-08-02T10:02:04.197Z,70.79
2022-08-02T10:07:08.200Z,76.68
2022-08-02T10:12:14.037Z,74.80
2022-08-02T10:17:18.179Z,73.45
2022-08-02T10:22:22.779Z,76.52
2022-08-02T10:27:48.897Z,76.82
2022-08-02T10:32:55.507Z,73.45
2022-08-02T10:38:06.677Z,70.43
2022-08-02T10:43:11.463Z,72.59
2022-08-02T10:48:15.548Z,71.87
2022-08-02T10:53:39.899Z,76.38
2022-08-02T10:58:44.903Z,74.64
2022-08-02T11:03:48.524Z,70.21
2022-08-02T11:08:51.857Z,68.05
2022-08-02T11:14:04.257Z,65.38
2022-08-02T11:19:07.618Z,60.71
2022-08-02T11:24:31.308Z,62.90
2022-08-02T11:29:39.063Z,59.69
2022-08-02T11:34:44.233Z,58.98
2022-08-02T11:39:52.663Z,58.68
2022-08-02T11:44:57.403Z,65.95
2022-08-02T11:50:07.911Z,68.60
2022-08-02T11:55:12.617Z,70.97
2022-08-02T12:00:19.535Z,69.12
2022-08-02T12:05:44.732Z,65.52
2022-08-02T12:10:49.682Z,65.21
2022-08-02T12:15:54.493Z,66.78
2022-08-02T12:20:58.269Z,67.68
2022-08-02T12:26:03.970Z,70.81
2022-08-02T12:31:11.603Z,71.49
2022-08-02T12:36:18.292Z,72.52
2022-08-02T12:41:31.627Z,71.69
2022-08-02T12:46:42.136Z,73.26
2022-08-02T12:51:50.879Z,72.83
2022-08-02T12:57:11.658Z,70.31
2022-08-02T13:02:17.509Z,70.63
2022-08-02T13:07:21.396Z,69.60
2022-08-02T13:12:25.246Z,69.41
2022-08-02T13:17:30.056Z,68.54
2022-08-02T13:22:33.561Z,67.95
2022-08-02T13:27:39.118Z,63.11
2022-08-02T13:32:44.032Z,51.78
2022-08-02T13:37:47.901Z,46.67
2022-08-02T13:42:51.352Z,42.19
2022-08-02T13:48:03.552Z,41.16
2022-08-02T13:53:08.327Z,41.46
2022-08-02T13:58:11.782Z,39.31
2022-08-02T14:03:16.494Z,47.82
2022-08-02T14:08:22.899Z,48.90
2022-08-02T14:13:26.314Z,41.99
2022-08-02T14:18:31.209Z,45.12
2022-08-02T14:23:49.125Z,41.18
2022-08-02T14:28:54.014Z,37.39
2022-08-02T14:33:58.969Z,37.94
2022-08-02T14:39:02.506Z,37.26
2022-08-02T14:44:07.276Z,33.69
2022-08-02T14:49:14.473Z,36.91
2022-08-02T14:54:20.038Z,38.42
2022-08-02T14:59:23.555Z,37.53
2022-08-02T15:04:28.657Z,39.72
2022-08-02T15:09:42.556Z,46.82
2022-08-02T15:14:46.035Z,50.13
2022-08-02T15:19:57.304Z,47.30
2022-08-02T15:25:03.603Z,40.97
2022-08-02T15:30:07.795Z,40.72
2022-08-02T15:35:12.533Z,39.72
2022-08-02T15:40:15.915Z,40.71
2022-08-02T15:45:19.871Z,43.92
2022-08-02T15:50:24.688Z,46.08
2022-08-02T15:55:28.454Z,51.63
2022-08-02T16:00:43.469Z,51.94
2022-08-02T16:05:48.184Z,56.40
2022-08-02T16:10:51.663Z,58.37
2022-08-02T16:15:55.120Z,59.35
2022-08-02T16:20:59.893Z,59.54
2022-08-02T16:26:03.246Z,58.55
2022-08-02T16:31:11.293Z,57.87
2022-08-02T16:36:16.429Z,59.13
2022-08-02T16:41:23.508Z,61.06
2022-08-02T16:46:47.255Z,63.06
2022-08-02T16:51:55.534Z,64.71
2022-08-02T16:56:59.069Z,65.86
2022-08-02T17:02:11.475Z,66.82
2022-08-02T17:08:07.757Z,64.02
2022-08-02T17:12:40.903Z,65.47
2022-08-02T17:17:44.245Z,66.14
2022-08-02T17:22:50.844Z,65.87
2022-08-02T17:27:55.822Z,67.08
2022-08-02T17:32:59.649Z,67.99
2022-08-02T17:38:05.380Z,68.64
2022-08-02T17:43:14.237Z,70.12
2022-08-02T17:48:18.062Z,71.37
2022-08-02T17:53:22.780Z,73.57
2022-08-02T17:58:33.024Z,75.81
2022-08-02T18:03:37.024Z,78.09
2022-08-02T18:08:47.710Z,81.03
2022-08-02T18:13:53.690Z,82.42
2022-08-02T18:18:57.100Z,83.70
2022-08-02T18:24:09.526Z,86.04
2022-08-02T18:29:13.446Z,87.69
2022-08-02T18:34:16.883Z,89.52
2022-08-02T18:39:21.552Z,91.78
2022-08-02T18:44:26.521Z,93.60
2022-08-02T18:49:48.618Z,96.33
2022-08-02T18:54:55.282Z,98.06
2022-08-02T18:59:58.696Z,99.36
2022-08-02T19:05:02.039Z,100.00
2022-08-02T19:10:07.514Z,100.00
2022-08-02T19:15:14.461Z,100.00
2022-08-02T19:20:19.666Z,100.00
2022-08-02T19:25:27.564Z,100.00
2022-08-02T19:30:31.479Z,100.00
2022-08-02T19:35:35.347Z,100.00
2022-08-02T19:41:01.723Z,100.00
2022-08-02T19:46:05.309Z,100.00
2022-08-02T19:51:08.608Z,100.00
2022-08-02T19:56:13.326Z,100.00
2022-08-02T20:01:36.561Z,100.00
2022-08-02T20:06:45.523Z,100.00
2022-08-02T20:11:54.422Z,100.00
2022-08-02T20:16:58.581Z,100.00
2022-08-02T20:22:01.897Z,100.00
2022-08-02T20:27:06.719Z,100.00
2022-08-02T20:32:10.135Z,100.00
2022-08-02T20:37:56.272Z,100.00
2022-08-02T20:42:38.162Z,100.00
2022-08-02T20:47:43.397Z,100.00
2022-08-02T20:52:53.594Z,100.00
2022-08-02T20:58:00.537Z,100.00
2022-08-02T21:03:07.068Z,100.00
2022-08-02T21:08:14.093Z,100.00
2022-08-02T21:13:22.806Z,100.00
2022-08-02T21:18:29.823Z,100.00
2022-08-02T21:23:54.814Z,100.00
2022-08-02T21:29:03.312Z,100.00
2022-08-02T21:34:26.868Z,100.00
2022-08-02T21:39:32.316Z,100.00
2022-08-02T21:44:37.064Z,100.00
2022-08-02T21:50:13.194Z,100.00
2022-08-02T21:55:08.172Z,100.00
2022-08-02T22:00:28.540Z,100.00
2022-08-02T22:05:37.188Z,100.00
2022-08-02T22:10:54.736Z,100.00
2022-08-02T22:15:59.998Z,100.00
2022-08-02T22:21:14.393Z,100.00
2022-08-02T22:26:21.232Z,100.00
2022-08-02T22:31:41.287Z,100.00
2022-08-02T22:36:45.599Z,100.00
2022-08-02T22:42:01.236Z,100.00
2022-08-02T22:52:33.517Z,100.00
2022-08-02T22:59:09.877Z,100.00
2022-08-02T23:03:01.753Z,100.00
2022-08-02T23:08:06.786Z,100.00
2022-08-02T23:13:10.353Z,100.00
2022-08-02T23:18:32.879Z,100.00
2022-08-02T23:23:36.226Z,100.00
2022-08-02T23:28:39.562Z,100.00
2022-08-02T23:34:04.503Z,100.00
2022-08-02T23:39:08.007Z,100.00
2022-08-02T23:44:14.112Z,100.00
2022-08-02T23:49:19.970Z,100.00
2022-08-02T23:54:24.183Z,100.00
2022-08-02T23:59:27.587Z,100.00
